sensor_id;sensor_type;location;lat;lon;timestamp;pressure;altitude;pressure_sealevel;temperature;humidity
12203;BME280;6164;42.178;24.622;2023-03-03T00:01:49;99996.69;;;6.82;100.00
12203;BME280;6164;42.178;24.622;2023-03-03T00:04:16;99996.00;;;6.80;100.00
12203;BME280;6164;42.178;24.622;2023-03-03T00:06:43;99997.53;;;6.83;100.00
12203;BME280;6164;42.178;24.622;2023-03-03T00:09:11;99978.31;;;6.82;100.00
12203;BME280;6164;42.178;24.622;2023-03-03T00:11:37;99979.28;;;6.81;100.00
12203;BME280;6164;42.178;24.622;2023-03-03T00:14:09;99981.78;;;6.83;100.00
12203;BME280;6164;42.178;24.622;2023-03-03T00:16:42;99980.13;;;6.82;100.00
12203;BME280;6164;42.178;24.622;2023-03-03T00:19:11;99967.56;;;6.85;100.00
12203;BME280;6164;42.178;24.622;2023-03-03T00:21:40;99970.06;;;6.87;100.00
12203;BME280;6164;42.178;24.622;2023-03-03T00:24:16;99964.66;;;6.88;100.00
12203;BME280;6164;42.178;24.622;2023-03-03T00:26:43;99959.16;;;6.91;100.00
12203;BME280;6164;42.178;24.622;2023-03-03T00:29:23;99957.91;;;6.95;100.00
12203;BME280;6164;42.178;24.622;2023-03-03T00:31:52;99960.66;;;6.94;100.00
12203;BME280;6164;42.178;24.622;2023-03-03T00:34:19;99949.22;;;6.95;100.00
12203;BME280;6164;42.178;24.622;2023-03-03T00:36:50;99947.41;;;6.95;100.00
12203;BME280;6164;42.178;24.622;2023-03-03T00:39:23;99945.59;;;6.96;100.00
12203;BME280;6164;42.178;24.622;2023-03-03T00:41:51;99943.81;;;6.96;100.00
12203;BME280;6164;42.178;24.622;2023-03-03T00:44:30;99942.03;;;6.97;100.00
12203;BME280;6164;42.178;24.622;2023-03-03T00:46:57;99932.47;;;6.96;100.00
12203;BME280;6164;42.178;24.622;2023-03-03T00:49:26;99931.78;;;6.94;100.00
12203;BME280;6164;42.178;24.622;2023-03-03T00:51:52;99933.59;;;6.93;100.00
12203;BME280;6164;42.178;24.622;2023-03-03T00:54:19;99924.88;;;6.93;100.00
12203;BME280;6164;42.178;24.622;2023-03-03T00:56:47;99926.00;;;6.90;100.00
12203;BME280;6164;42.178;24.622;2023-03-03T00:59:13;99915.50;;;6.90;100.00
12203;BME280;6164;42.178;24.622;2023-03-03T01:01:39;99915.34;;;6.82;100.00
12203;BME280;6164;42.178;24.622;2023-03-03T01:04:06;99920.19;;;6.87;100.00
12203;BME280;6164;42.178;24.622;2023-03-03T01:06:32;99914.38;;;6.83;100.00
12203;BME280;6164;42.178;24.622;2023-03-03T01:08:59;99919.22;;;6.88;100.00
12203;BME280;6164;42.178;24.622;2023-03-03T01:11:25;99918.13;;;6.90;100.00
12203;BME280;6164;42.178;24.622;2023-03-03T01:13:55;99914.53;;;6.91;100.00
12203;BME280;6164;42.178;24.622;2023-03-03T01:16:21;99910.38;;;6.89;100.00
12203;BME280;6164;42.178;24.622;2023-03-03T01:18:48;99915.75;;;6.87;100.00
12203;BME280;6164;42.178;24.622;2023-03-03T01:21:14;99917.44;;;6.88;100.00
12203;BME280;6164;42.178;24.622;2023-03-03T01:23:41;99915.91;;;6.86;100.00
12203;BME280;6164;42.178;24.622;2023-03-03T01:26:07;99918.22;;;6.79;100.00
12203;BME280;6164;42.178;24.622;2023-03-03T01:28:34;99919.22;;;6.78;100.00
12203;BME280;6164;42.178;24.622;2023-03-03T01:31:02;99916.31;;;6.81;100.00
12203;BME280;6164;42.178;24.622;2023-03-03T01:33:28;99918.38;;;6.78;100.00
12203;BME280;6164;42.178;24.622;2023-03-03T01:35:56;99921.84;;;6.78;100.00
12203;BME280;6164;42.178;24.622;2023-03-03T01:38:22;99914.38;;;6.74;100.00
12203;BME280;6164;42.178;24.622;2023-03-03T01:40:51;99913.53;;;6.73;100.00
12203;BME280;6164;42.178;24.622;2023-03-03T01:43:17;99912.84;;;6.71;100.00
12203;BME280;6164;42.178;24.622;2023-03-03T01:48:28;99917.53;;;6.77;100.00
12203;BME280;6164;42.178;24.622;2023-03-03T01:50:56;99919.34;;;6.77;100.00
12203;BME280;6164;42.178;24.622;2023-03-03T01:53:27;99914.81;;;6.79;100.00
12203;BME280;6164;42.178;24.622;2023-03-03T01:55:55;99907.59;;;6.81;100.00
12203;BME280;6164;42.178;24.622;2023-03-03T01:58:23;99909.28;;;6.82;100.00
12203;BME280;6164;42.178;24.622;2023-03-03T02:00:52;99910.63;;;6.76;100.00
12203;BME280;6164;42.178;24.622;2023-03-03T02:03:20;99905.81;;;6.72;100.00
12203;BME280;6164;42.178;24.622;2023-03-03T02:05:49;99906.75;;;6.61;100.00
12203;BME280;6164;42.178;24.622;2023-03-03T02:08:17;99895.56;;;6.59;100.00
12203;BME280;6164;42.178;24.622;2023-03-03T02:10:45;99893.22;;;6.56;100.00
12203;BME280;6164;42.178;24.622;2023-03-03T02:13:12;99892.66;;;6.52;100.00
12203;BME280;6164;42.178;24.622;2023-03-03T02:15:41;99898.16;;;6.49;100.00
12203;BME280;6164;42.178;24.622;2023-03-03T02:18:08;99892.66;;;6.52;100.00
12203;BME280;6164;42.178;24.622;2023-03-03T02:20:44;99893.22;;;6.56;100.00
12203;BME280;6164;42.178;24.622;2023-03-03T02:23:15;99896.41;;;6.59;100.00
12203;BME280;6164;42.178;24.622;2023-03-03T02:25:45;99896.97;;;6.63;100.00
12203;BME280;6164;42.178;24.622;2023-03-03T02:28:15;99892.41;;;6.55;100.00
12203;BME280;6164;42.178;24.622;2023-03-03T02:30:41;99894.47;;;6.61;100.00
12203;BME280;6164;42.178;24.622;2023-03-03T02:33:09;99886.75;;;6.60;100.00
12203;BME280;6164;42.178;24.622;2023-03-03T02:35:36;99884.09;;;6.50;100.00
12203;BME280;6164;42.178;24.622;2023-03-03T02:38:11;99889.50;;;6.58;100.00
12203;BME280;6164;42.178;24.622;2023-03-03T02:40:42;99889.09;;;6.63;100.00
12203;BME280;6164;42.178;24.622;2023-03-03T02:43:09;99884.25;;;6.58;100.00
12203;BME280;6164;42.178;24.622;2023-03-03T02:45:42;99885.88;;;6.50;100.00
12203;BME280;6164;42.178;24.622;2023-03-03T02:48:09;99885.19;;;6.48;100.00
12203;BME280;6164;42.178;24.622;2023-03-03T02:50:35;99887.00;;;6.57;100.00
12203;BME280;6164;42.178;24.622;2023-03-03T02:53:02;99884.13;;;6.60;100.00
12203;BME280;6164;42.178;24.622;2023-03-03T02:55:28;99882.34;;;6.60;100.00
12203;BME280;6164;42.178;24.622;2023-03-03T02:57:55;99888.25;;;6.62;100.00
12203;BME280;6164;42.178;24.622;2023-03-03T03:00:22;99887.16;;;6.65;100.00
12203;BME280;6164;42.178;24.622;2023-03-03T03:02:50;99892.13;;;6.68;100.00
12203;BME280;6164;42.178;24.622;2023-03-03T03:05:16;99886.88;;;6.68;100.00
12203;BME280;6164;42.178;24.622;2023-03-03T03:07:43;99884.97;;;6.70;100.00
12203;BME280;6164;42.178;24.622;2023-03-03T03:10:09;99890.06;;;6.72;100.00
12203;BME280;6164;42.178;24.622;2023-03-03T03:12:36;99885.53;;;6.74;100.00
12203;BME280;6164;42.178;24.622;2023-03-03T03:15:03;99892.28;;;6.76;100.00
12203;BME280;6164;42.178;24.622;2023-03-03T03:17:29;99878.19;;;6.77;100.00
12203;BME280;6164;42.178;24.622;2023-03-03T03:19:57;99880.56;;;6.80;100.00
12203;BME280;6164;42.178;24.622;2023-03-03T03:22:24;99878.59;;;6.82;100.00
12203;BME280;6164;42.178;24.622;2023-03-03T03:24:50;99872.41;;;6.83;100.00
12203;BME280;6164;42.178;24.622;2023-03-03T03:27:17;99881.09;;;6.84;100.00
12203;BME280;6164;42.178;24.622;2023-03-03T03:29:43;99876.66;;;6.84;100.00
12203;BME280;6164;42.178;24.622;2023-03-03T03:32:09;99873.09;;;6.85;100.00
12203;BME280;6164;42.178;24.622;2023-03-03T03:34:36;99865.38;;;6.84;100.00
12203;BME280;6164;42.178;24.622;2023-03-03T03:37:04;99873.09;;;6.85;100.00
12203;BME280;6164;42.178;24.622;2023-03-03T03:39:34;99871.41;;;6.84;100.00
12203;BME280;6164;42.178;24.622;2023-03-03T03:42:00;99871.28;;;6.86;100.00
12203;BME280;6164;42.178;24.622;2023-03-03T03:44:26;99869.78;;;6.83;100.00
12203;BME280;6164;42.178;24.622;2023-03-03T03:46:53;99864.81;;;6.80;100.00
12203;BME280;6164;42.178;24.622;2023-03-03T03:49:19;99863.56;;;6.84;100.00
12203;BME280;6164;42.178;24.622;2023-03-03T03:51:46;99861.91;;;6.83;100.00
12203;BME280;6164;42.178;24.622;2023-03-03T03:54:14;99868.78;;;6.84;100.00
12203;BME280;6164;42.178;24.622;2023-03-03T03:56:40;99866.16;;;6.84;100.00
12203;BME280;6164;42.178;24.622;2023-03-03T03:59:07;99866.16;;;6.84;100.00
12203;BME280;6164;42.178;24.622;2023-03-03T04:01:33;99863.41;;;6.86;100.00
12203;BME280;6164;42.178;24.622;2023-03-03T04:04:00;99864.25;;;6.86;100.00
12203;BME280;6164;42.178;24.622;2023-03-03T04:06:27;99866.72;;;6.88;100.00
12203;BME280;6164;42.178;24.622;2023-03-03T04:08:53;99867.72;;;6.87;100.00
12203;BME280;6164;42.178;24.622;2023-03-03T04:11:21;99868.50;;;6.87;100.00
12203;BME280;6164;42.178;24.622;2023-03-03T04:13:48;99863.56;;;6.84;100.00
12203;BME280;6164;42.178;24.622;2023-03-03T04:16:14;99860.94;;;6.84;100.00
12203;BME280;6164;42.178;24.622;2023-03-03T04:18:41;99857.34;;;6.85;100.00
12203;BME280;6164;42.178;24.622;2023-03-03T04:21:10;99862.59;;;6.85;100.00
12203;BME280;6164;42.178;24.622;2023-03-03T04:23:37;99862.47;;;6.87;100.00
12203;BME280;6164;42.178;24.622;2023-03-03T04:26:03;99866.03;;;6.86;100.00
12203;BME280;6164;42.178;24.622;2023-03-03T04:28:31;99870.34;;;6.87;100.00
12203;BME280;6164;42.178;24.622;2023-03-03T04:30:58;99858.16;;;6.86;100.00
12203;BME280;6164;42.178;24.622;2023-03-03T04:33:24;99859.97;;;6.85;100.00
12203;BME280;6164;42.178;24.622;2023-03-03T04:35:51;99857.50;;;6.84;100.00
12203;BME280;6164;42.178;24.622;2023-03-03T04:38:17;99866.88;;;6.86;100.00
12203;BME280;6164;42.178;24.622;2023-03-03T04:40:44;99866.03;;;6.86;100.00
12203;BME280;6164;42.178;24.622;2023-03-03T04:43:10;99856.38;;;6.86;100.00
12203;BME280;6164;42.178;24.622;2023-03-03T04:45:38;99861.75;;;6.85;100.00
12203;BME280;6164;42.178;24.622;2023-03-03T04:48:05;99863.97;;;6.80;100.00
12203;BME280;6164;42.178;24.622;2023-03-03T04:50:31;99859.56;;;6.80;100.00
12203;BME280;6164;42.178;24.622;2023-03-03T04:52:58;99860.66;;;6.78;100.00
12203;BME280;6164;42.178;24.622;2023-03-03T04:55:25;99859.69;;;6.79;100.00
12203;BME280;6164;42.178;24.622;2023-03-03T04:57:51;99860.66;;;6.78;100.00
12203;BME280;6164;42.178;24.622;2023-03-03T05:00:18;99861.50;;;6.78;100.00
12203;BME280;6164;42.178;24.622;2023-03-03T05:02:46;99861.50;;;6.78;100.00
12203;BME280;6164;42.178;24.622;2023-03-03T05:05:13;99865.75;;;6.79;100.00
12203;BME280;6164;42.178;24.622;2023-03-03T05:07:39;99865.75;;;6.79;100.00
12203;BME280;6164;42.178;24.622;2023-03-03T05:10:06;99866.03;;;6.76;100.00
12203;BME280;6164;42.178;24.622;2023-03-03T05:12:33;99863.41;;;6.76;100.00
12203;BME280;6164;42.178;24.622;2023-03-03T05:14:59;99869.63;;;6.75;100.00
12203;BME280;6164;42.178;24.622;2023-03-03T05:17:26;99867.16;;;6.74;100.00
12203;BME280;6164;42.178;24.622;2023-03-03T05:19:54;99865.19;;;6.76;100.00
12203;BME280;6164;42.178;24.622;2023-03-03T05:22:21;99865.47;;;6.72;100.00
12203;BME280;6164;42.178;24.622;2023-03-03T05:24:48;99866.19;;;6.75;100.00
12203;BME280;6164;42.178;24.622;2023-03-03T05:27:15;99867.00;;;6.75;100.00
12203;BME280;6164;42.178;24.622;2023-03-03T05:29:42;99872.81;;;6.79;100.00
12203;BME280;6164;42.178;24.622;2023-03-03T05:32:08;99860.66;;;6.78;100.00
12203;BME280;6164;42.178;24.622;2023-03-03T05:34:35;99872.94;;;6.77;100.00
12203;BME280;6164;42.178;24.622;2023-03-03T05:37:03;99865.91;;;6.78;100.00
12203;BME280;6164;42.178;24.622;2023-03-03T05:39:30;99873.50;;;6.81;100.00
12203;BME280;6164;42.178;24.622;2023-03-03T05:41:57;99871.97;;;6.78;100.00
12203;BME280;6164;42.178;24.622;2023-03-03T05:44:24;99871.56;;;6.83;100.00
12203;BME280;6164;42.178;24.622;2023-03-03T05:46:50;99868.94;;;6.83;100.00
12203;BME280;6164;42.178;24.622;2023-03-03T05:49:17;99879.00;;;6.78;100.00
12203;BME280;6164;42.178;24.622;2023-03-03T05:51:43;99872.53;;;6.82;100.00
12203;BME280;6164;42.178;24.622;2023-03-03T05:54:11;99875.03;;;6.83;100.00
12203;BME280;6164;42.178;24.622;2023-03-03T05:56:41;99886.06;;;6.87;100.00
12203;BME280;6164;42.178;24.622;2023-03-03T05:59:07;99889.13;;;6.92;100.00
12203;BME280;6164;42.178;24.622;2023-03-03T06:01:34;99892.41;;;6.94;100.00
12203;BME280;6164;42.178;24.622;2023-03-03T06:04:00;99886.91;;;6.97;100.00
12203;BME280;6164;42.178;24.622;2023-03-03T06:06:26;99885.78;;;6.99;100.00
12203;BME280;6164;42.178;24.622;2023-03-03T06:08:53;99888.97;;;7.03;100.00
12203;BME280;6164;42.178;24.622;2023-03-03T06:11:21;99888.53;;;7.07;100.00
12203;BME280;6164;42.178;24.622;2023-03-03T06:13:47;99891.59;;;7.03;100.00
12203;BME280;6164;42.178;24.622;2023-03-03T06:16:14;99889.53;;;7.06;100.00
12203;BME280;6164;42.178;24.622;2023-03-03T06:18:40;99890.88;;;7.10;100.00
12203;BME280;6164;42.178;24.622;2023-03-03T06:21:07;99897.25;;;7.08;100.00
12203;BME280;6164;42.178;24.622;2023-03-03T06:23:33;99896.13;;;7.10;100.00
12203;BME280;6164;42.178;24.622;2023-03-03T06:26:00;99903.88;;;7.12;100.00
12203;BME280;6164;42.178;24.622;2023-03-03T06:28:28;99898.91;;;7.18;100.00
12203;BME280;6164;42.178;24.622;2023-03-03T06:30:54;99899.59;;;7.20;100.00
12203;BME280;6164;42.178;24.622;2023-03-03T06:33:21;99902.63;;;7.16;100.00
12203;BME280;6164;42.178;24.622;2023-03-03T06:35:48;99906.38;;;7.23;100.00
12203;BME280;6164;42.178;24.622;2023-03-03T06:38:14;99896.56;;;7.25;100.00
12203;BME280;6164;42.178;24.622;2023-03-03T06:40:41;99904.03;;;7.29;100.00
12203;BME280;6164;42.178;24.622;2023-03-03T06:43:07;99908.00;;;7.33;100.00
12203;BME280;6164;42.178;24.622;2023-03-03T06:45:35;99897.34;;;7.35;100.00
12203;BME280;6164;42.178;24.622;2023-03-03T06:48:02;99900.81;;;7.35;100.00
12203;BME280;6164;42.178;24.622;2023-03-03T06:50:28;99903.84;;;7.40;100.00
12203;BME280;6164;42.178;24.622;2023-03-03T06:52:58;99902.47;;;7.46;100.00
12203;BME280;6164;42.178;24.622;2023-03-03T06:55:27;99898.28;;;7.53;100.00
12203;BME280;6164;42.178;24.622;2023-03-03T06:57:53;99898.03;;;7.56;100.00
12203;BME280;6164;42.178;24.622;2023-03-03T07:00:22;99896.63;;;7.61;100.00
12203;BME280;6164;42.178;24.622;2023-03-03T07:05:18;99900.09;;;7.62;100.00
12203;BME280;6164;42.178;24.622;2023-03-03T07:07:45;99895.66;;;7.62;100.00
12203;BME280;6164;42.178;24.622;2023-03-03T07:10:15;99887.34;;;7.67;100.00
12203;BME280;6164;42.178;24.622;2023-03-03T07:12:43;99895.78;;;7.70;100.00
12203;BME280;6164;42.178;24.622;2023-03-03T07:15:14;99898.97;;;7.74;100.00
12203;BME280;6164;42.178;24.622;2023-03-03T07:17:43;99894.66;;;7.73;100.00
12203;BME280;6164;42.178;24.622;2023-03-03T07:20:14;99893.69;;;7.74;100.00
12203;BME280;6164;42.178;24.622;2023-03-03T07:22:44;99888.44;;;7.74;100.00
12203;BME280;6164;42.178;24.622;2023-03-03T07:25:17;99892.56;;;7.76;100.00
12203;BME280;6164;42.178;24.622;2023-03-03T07:27:44;99889.78;;;7.78;100.00
12203;BME280;6164;42.178;24.622;2023-03-03T07:30:21;99897.41;;;7.81;100.00
12203;BME280;6164;42.178;24.622;2023-03-03T07:32:49;99894.50;;;7.84;100.00
12203;BME280;6164;42.178;24.622;2023-03-03T07:35:28;99897.78;;;7.86;100.00
12203;BME280;6164;42.178;24.622;2023-03-03T07:38:02;99892.94;;;7.91;100.00
12203;BME280;6164;42.178;24.622;2023-03-03T07:40:32;99891.16;;;7.91;100.00
12203;BME280;6164;42.178;24.622;2023-03-03T07:43:00;99885.88;;;7.91;100.00
12203;BME280;6164;42.178;24.622;2023-03-03T07:45:28;99885.50;;;7.86;100.00
12203;BME280;6164;42.178;24.622;2023-03-03T07:47:59;99894.34;;;7.85;100.00
12203;BME280;6164;42.178;24.622;2023-03-03T07:50:26;99890.75;;;7.86;100.00
12203;BME280;6164;42.178;24.622;2023-03-03T07:52:54;99893.38;;;7.86;100.00
12203;BME280;6164;42.178;24.622;2023-03-03T07:55:31;99889.66;;;7.89;100.00
12203;BME280;6164;42.178;24.622;2023-03-03T07:58:05;99895.84;;;7.88;100.00
12203;BME280;6164;42.178;24.622;2023-03-03T08:03:34;99885.94;;;7.82;100.00
12203;BME280;6164;42.178;24.622;2023-03-03T08:06:03;99887.16;;;7.78;100.00
12203;BME280;6164;42.178;24.622;2023-03-03T08:08:35;99877.66;;;7.77;100.00
12203;BME280;6164;42.178;24.622;2023-03-03T08:11:03;99881.22;;;7.76;100.00
12203;BME280;6164;42.178;24.622;2023-03-03T08:13:35;99872.53;;;7.75;100.00
12203;BME280;6164;42.178;24.622;2023-03-03T08:16:03;99877.78;;;7.75;100.00
12203;BME280;6164;42.178;24.622;2023-03-03T08:18:44;99878.47;;;7.77;100.00
12203;BME280;6164;42.178;24.622;2023-03-03T08:21:12;99869.75;;;7.77;100.00
12203;BME280;6164;42.178;24.622;2023-03-03T08:23:39;99869.91;;;7.75;100.00
12203;BME280;6164;42.178;24.622;2023-03-03T08:26:07;99866.72;;;7.72;100.00
12203;BME280;6164;42.178;24.622;2023-03-03T08:28:34;99868.38;;;7.73;100.00
12203;BME280;6164;42.178;24.622;2023-03-03T08:31:00;99862.47;;;7.71;100.00
12203;BME280;6164;42.178;24.622;2023-03-03T08:33:27;99852.22;;;7.68;100.00
12203;BME280;6164;42.178;24.622;2023-03-03T08:35:53;99864.00;;;7.64;100.00
12203;BME280;6164;42.178;24.622;2023-03-03T08:38:20;99858.59;;;7.65;100.00
12203;BME280;6164;42.178;24.622;2023-03-03T08:40:47;99856.81;;;7.66;100.00
12203;BME280;6164;42.178;24.622;2023-03-03T08:43:16;99859.16;;;7.69;100.00
12203;BME280;6164;42.178;24.622;2023-03-03T08:45:46;99847.66;;;7.70;100.00
12203;BME280;6164;42.178;24.622;2023-03-03T08:48:13;99860.78;;;7.70;100.00
12203;BME280;6164;42.178;24.622;2023-03-03T08:50:40;99841.03;;;7.66;100.00
12203;BME280;6164;42.178;24.622;2023-03-03T08:53:06;99848.28;;;7.54;100.00
12203;BME280;6164;42.178;24.622;2023-03-03T08:55:33;99842.47;;;7.51;100.00
12203;BME280;6164;42.178;24.622;2023-03-03T08:57:59;99846.03;;;7.59;100.00
12203;BME280;6164;42.178;24.622;2023-03-03T09:00:27;99847.34;;;7.73;100.00
12203;BME280;6164;42.178;24.622;2023-03-03T09:02:54;99847.06;;;7.76;100.00
12203;BME280;6164;42.178;24.622;2023-03-03T09:05:21;99850.28;;;7.70;100.00
12203;BME280;6164;42.178;24.622;2023-03-03T09:07:48;99844.88;;;7.71;100.00
12203;BME280;6164;42.178;24.622;2023-03-03T09:10:16;99848.03;;;7.75;100.00
12203;BME280;6164;42.178;24.622;2023-03-03T09:12:43;99841.41;;;7.80;100.00
12203;BME280;6164;42.178;24.622;2023-03-03T09:15:14;99837.47;;;7.84;100.00
12203;BME280;6164;42.178;24.622;2023-03-03T09:17:43;99834.00;;;7.93;100.00
12203;BME280;6164;42.178;24.622;2023-03-03T09:20:16;99833.31;;;7.91;100.00
12203;BME280;6164;42.178;24.622;2023-03-03T09:22:46;99838.81;;;7.98;100.00
12203;BME280;6164;42.178;24.622;2023-03-03T09:25:13;99838.41;;;7.93;100.00
12203;BME280;6164;42.178;24.622;2023-03-03T09:27:44;99840.34;;;8.00;100.00
12203;BME280;6164;42.178;24.622;2023-03-03T09:30:11;99832.06;;;7.95;100.00
12203;BME280;6164;42.178;24.622;2023-03-03T09:32:41;99832.16;;;8.03;100.00
12203;BME280;6164;42.178;24.622;2023-03-03T09:35:32;99835.41;;;8.15;100.00
12203;BME280;6164;42.178;24.622;2023-03-03T09:38:01;99828.69;;;8.03;100.00
12203;BME280;6164;42.178;24.622;2023-03-03T09:40:43;99821.13;;;8.18;100.00
12203;BME280;6164;42.178;24.622;2023-03-03T09:43:14;99837.09;;;8.34;100.00
12203;BME280;6164;42.178;24.622;2023-03-03T09:45:45;99836.63;;;8.48;100.00
12203;BME280;6164;42.178;24.622;2023-03-03T09:48:22;99828.81;;;8.56;100.00
12203;BME280;6164;42.178;24.622;2023-03-03T09:50:55;99827.75;;;8.66;100.00
12203;BME280;6164;42.178;24.622;2023-03-03T09:53:29;99819.41;;;8.71;100.00
12203;BME280;6164;42.178;24.622;2023-03-03T09:56:01;99813.06;;;8.81;100.00
12203;BME280;6164;42.178;24.622;2023-03-03T09:58:35;99812.41;;;8.79;100.00
12203;BME280;6164;42.178;24.622;2023-03-03T10:01:32;99815.94;;;8.88;100.00
12203;BME280;6164;42.178;24.622;2023-03-03T10:04:10;99816.59;;;8.90;100.00
12203;BME280;6164;42.178;24.622;2023-03-03T10:06:44;99820.97;;;8.81;100.00
12203;BME280;6164;42.178;24.622;2023-03-03T10:11:59;99812.25;;;8.46;100.00
12203;BME280;6164;42.178;24.622;2023-03-03T10:14:40;99820.59;;;8.59;100.00
12203;BME280;6164;42.178;24.622;2023-03-03T10:17:17;99819.34;;;8.63;100.00
12203;BME280;6164;42.178;24.622;2023-03-03T10:19:48;99811.28;;;8.64;100.00
12203;BME280;6164;42.178;24.622;2023-03-03T10:22:20;99805.25;;;8.72;100.00
12203;BME280;6164;42.178;24.622;2023-03-03T10:24:55;99802.78;;;8.70;100.00
12203;BME280;6164;42.178;24.622;2023-03-03T10:27:29;99803.03;;;8.59;100.00
12203;BME280;6164;42.178;24.622;2023-03-03T10:30:00;99795.66;;;8.63;100.00
12203;BME280;6164;42.178;24.622;2023-03-03T10:32:38;99797.31;;;8.64;100.00
12203;BME280;6164;42.178;24.622;2023-03-03T10:37:52;99791.41;;;8.70;100.00
12203;BME280;6164;42.178;24.622;2023-03-03T10:40:24;99784.66;;;8.67;100.00
12203;BME280;6164;42.178;24.622;2023-03-03T10:43:00;99782.31;;;8.82;100.00
12203;BME280;6164;42.178;24.622;2023-03-03T10:45:35;99774.19;;;8.75;100.00
12203;BME280;6164;42.178;24.622;2023-03-03T10:48:27;99777.91;;;8.65;100.00
12203;BME280;6164;42.178;24.622;2023-03-03T10:51:00;99780.25;;;8.68;100.00
12203;BME280;6164;42.178;24.622;2023-03-03T10:53:33;99775.25;;;8.82;100.00
12203;BME280;6164;42.178;24.622;2023-03-03T10:56:07;99768.84;;;8.85;100.00
12203;BME280;6164;42.178;24.622;2023-03-03T10:58:45;99766.84;;;8.79;100.00
12203;BME280;6164;42.178;24.622;2023-03-03T11:01:18;99761.53;;;8.53;100.00
12203;BME280;6164;42.178;24.622;2023-03-03T11:06:31;99752.38;;;8.40;100.00
12203;BME280;6164;42.178;24.622;2023-03-03T11:09:04;99755.81;;;8.58;100.00
12203;BME280;6164;42.178;24.622;2023-03-03T11:11:37;99753.84;;;8.60;100.00
12203;BME280;6164;42.178;24.622;2023-03-03T11:14:09;99748.44;;;8.44;100.00
12203;BME280;6164;42.178;24.622;2023-03-03T11:16:40;99750.41;;;8.42;100.00
12203;BME280;6164;42.178;24.622;2023-03-03T11:19:16;99739.13;;;8.49;100.00
12203;BME280;6164;42.178;24.622;2023-03-03T11:21:48;99738.50;;;8.55;100.00
12203;BME280;6164;42.178;24.622;2023-03-03T11:24:27;99741.44;;;8.52;100.00
12203;BME280;6164;42.178;24.622;2023-03-03T11:29:55;99735.22;;;8.53;100.00
12203;BME280;6164;42.178;24.622;2023-03-03T11:32:26;99727.44;;;8.69;100.00
12203;BME280;6164;42.178;24.622;2023-03-03T11:34:57;99721.25;;;8.78;100.00
12203;BME280;6164;42.178;24.622;2023-03-03T11:37:27;99728.28;;;8.95;100.00
12203;BME280;6164;42.178;24.622;2023-03-03T11:40:09;99725.34;;;8.98;100.00
12203;BME280;6164;42.178;24.622;2023-03-03T11:42:41;99717.53;;;9.14;100.00
12203;BME280;6164;42.178;24.622;2023-03-03T11:45:10;99719.41;;;9.22;100.00
12203;BME280;6164;42.178;24.622;2023-03-03T11:47:41;99717.16;;;9.35;100.00
12203;BME280;6164;42.178;24.622;2023-03-03T11:50:13;99704.25;;;9.58;100.00
12203;BME280;6164;42.178;24.622;2023-03-03T11:52:42;99703.66;;;9.72;100.00
12203;BME280;6164;42.178;24.622;2023-03-03T11:55:14;99702.00;;;9.79;100.00
12203;BME280;6164;42.178;24.622;2023-03-03T11:57:43;99701.28;;;9.61;100.00
12203;BME280;6164;42.178;24.622;2023-03-03T12:00:20;99693.69;;;9.50;100.00
12203;BME280;6164;42.178;24.622;2023-03-03T12:02:55;99693.31;;;9.45;100.00
12203;BME280;6164;42.178;24.622;2023-03-03T12:05:30;99693.69;;;9.50;100.00
12203;BME280;6164;42.178;24.622;2023-03-03T12:08:02;99694.00;;;9.47;100.00
12203;BME280;6164;42.178;24.622;2023-03-03T12:10:34;99690.19;;;9.41;100.00
12203;BME280;6164;42.178;24.622;2023-03-03T12:13:08;99679.81;;;9.48;100.00
12203;BME280;6164;42.178;24.622;2023-03-03T12:15:40;99689.31;;;9.74;100.00
12203;BME280;6164;42.178;24.622;2023-03-03T12:21:03;99682.78;;;10.02;100.00
12203;BME280;6164;42.178;24.622;2023-03-03T12:23:40;99678.16;;;9.96;100.00
12203;BME280;6164;42.178;24.622;2023-03-03T12:26:15;99668.00;;;10.09;100.00
12203;BME280;6164;42.178;24.622;2023-03-03T12:28:44;99668.00;;;10.17;100.00
12203;BME280;6164;42.178;24.622;2023-03-03T12:31:21;99671.41;;;10.02;100.00
12203;BME280;6164;42.178;24.622;2023-03-03T12:33:53;99669.47;;;10.12;100.00
12203;BME280;6164;42.178;24.622;2023-03-03T12:39:11;99674.50;;;9.81;100.00
12203;BME280;6164;42.178;24.622;2023-03-03T12:41:42;99673.66;;;9.81;100.00
12203;BME280;6164;42.178;24.622;2023-03-03T12:44:13;99679.22;;;9.54;100.00
12203;BME280;6164;42.178;24.622;2023-03-03T12:46:43;99680.19;;;9.53;100.00
12203;BME280;6164;42.178;24.622;2023-03-03T12:49:10;99676.06;;;9.50;100.00
12203;BME280;6164;42.178;24.622;2023-03-03T12:51:41;99682.41;;;9.73;100.00
12203;BME280;6164;42.178;24.622;2023-03-03T12:54:18;99675.97;;;9.84;100.00
12203;BME280;6164;42.178;24.622;2023-03-03T12:56:48;99678.16;;;9.96;100.00
12203;BME280;6164;42.178;24.622;2023-03-03T12:59:19;99671.72;;;9.99;100.00
12203;BME280;6164;42.178;24.622;2023-03-03T13:01:52;99669.91;;;9.91;100.00
12203;BME280;6164;42.178;24.622;2023-03-03T13:04:27;99668.91;;;9.84;100.00
12203;BME280;6164;42.178;24.622;2023-03-03T13:06:57;99663.13;;;9.89;100.00
12203;BME280;6164;42.178;24.622;2023-03-03T13:09:28;99659.31;;;9.75;100.00
12203;BME280;6164;42.178;24.622;2023-03-03T13:12:06;99671.34;;;9.70;100.00
12203;BME280;6164;42.178;24.622;2023-03-03T13:14:34;99665.41;;;9.68;100.00
12203;BME280;6164;42.178;24.622;2023-03-03T13:17:06;99672.81;;;9.64;100.00
12203;BME280;6164;42.178;24.622;2023-03-03T13:19:36;99662.41;;;9.63;100.00
12203;BME280;6164;42.178;24.622;2023-03-03T13:22:06;99660.41;;;9.49;100.00
12203;BME280;6164;42.178;24.622;2023-03-03T13:24:36;99657.66;;;9.66;100.00
12203;BME280;6164;42.178;24.622;2023-03-03T13:27:09;99659.19;;;9.77;100.00
12203;BME280;6164;42.178;24.622;2023-03-03T13:29:38;99658.34;;;9.84;100.00
12203;BME280;6164;42.178;24.622;2023-03-03T13:32:07;99657.88;;;9.89;100.00
12203;BME280;6164;42.178;24.622;2023-03-03T13:34:38;99652.44;;;9.90;100.00
12203;BME280;6164;42.178;24.622;2023-03-03T13:37:10;99648.16;;;9.89;100.00